Accueil
METAR-TAF:

METAR-TAF

Aéroports :

Cervia, Italie

latitude: 44-13N, longitude: 012-18E, altitude: 6 m

Observation

Le bulletin a été fait il y a 25 minutes, à 21:55 UTC
Vent 9 kt de ouest
Température 5°C
Humidité 87%
Pression 1011 hPa
Visibilité: 4000 m
Ciel couvert à une hauteur de 2500 ft
pluie faible, brume

METAR: LIPC 202155Z 26009KT 4000 -RA BR OVC025 05/03 Q1011 RMK OVC VIS MIN 4000 WIND THR11 26008KT WIND THR29 27009KT GRN

Heure: 23:20 (22:20 UTC)

Prévision

Le bulletin a été fait il y a 2 heures et 20 minutes, à 20:00 UTC
Prévision valable du 20 à 21 UTC au 21 à 06 UTC
Vent 10 kt de ouest/nord-ouest
Visibilité: 3000 m
Nuages épars à une hauteur de 500 ft
Nuages fragmentés à une hauteur de 1500 ft
pluie, brume
Temporairement
du 20 à 21 UTC au 21 à 06 UTC
Visibilité: 1500 m
pluie, brume

TAF: LIPC 202000Z 2021/2106 29010KT 3000 RA BR SCT005 BKN015 TEMPO 2021/2106 1500 RA BR

Observations et prévisions météorologiques de plus de 4000 aéroports (messages METAR et TAF).

Les stations disponibles sont représentées par des disques jaunes et rouges sur la carte.

Passer la souris dessus pour voir le nom de la station.

Cliquer dessus pour voir les observations et prévisions météorologiques.

Pour changer de carte: cliquez sur les boutons verts avec une croix noire pour zoomer, sur le bouton vert avec un tiret pour effectuer un zoom arrière, ou sur les flèches vertes pour les cartes adjacentes.


METAR-TAF: